createdAt,value
2018-02-20T00:01:21.057Z,23.90
2018-02-20T00:03:49.179Z,22.53
2018-02-20T00:06:18.049Z,24.13
2018-02-20T00:08:46.139Z,23.80
2018-02-20T00:11:15.016Z,23.47
2018-02-20T00:13:43.087Z,25.50
2018-02-20T00:16:11.189Z,24.87
2018-02-20T00:18:39.294Z,23.83
2018-02-20T00:21:07.411Z,24.50
2018-02-20T00:23:35.509Z,23.57
2018-02-20T00:26:03.605Z,25.47
2018-02-20T00:28:31.710Z,24.73
2018-02-20T00:30:59.824Z,23.17
2018-02-20T00:33:27.916Z,22.27
2018-02-20T00:35:56.003Z,23.50
2018-02-20T00:38:24.117Z,21.97
2018-02-20T00:40:52.228Z,24.03
2018-02-20T00:43:20.348Z,23.83
2018-02-20T00:45:48.445Z,22.97
2018-02-20T00:48:17.313Z,23.80
2018-02-20T00:50:45.403Z,25.77
2018-02-20T00:53:14.286Z,25.47
2018-02-20T00:55:43.154Z,25.53
2018-02-20T00:58:11.258Z,25.27
2018-02-20T01:00:40.208Z,25.20
2018-02-20T01:03:09.260Z,25.30
2018-02-20T01:05:37.372Z,25.43
2018-02-20T01:08:05.461Z,26.60
2018-02-20T01:10:33.625Z,25.67
2018-02-20T01:13:01.754Z,25.33
2018-02-20T01:15:33.207Z,27.20
2018-02-20T01:18:01.324Z,25.53
2018-02-20T01:20:29.420Z,25.27
2018-02-20T01:22:57.537Z,25.03
2018-02-20T01:25:26.576Z,23.70
2018-02-20T01:27:54.653Z,23.33
2018-02-20T01:30:22.770Z,24.30
2018-02-20T01:32:50.863Z,22.87
2018-02-20T01:35:18.959Z,21.73
2018-02-20T01:37:47.098Z,23.87
2018-02-20T01:40:15.203Z,23.50
2018-02-20T01:42:43.300Z,23.70
2018-02-20T01:45:11.384Z,23.93
2018-02-20T01:47:40.258Z,23.40
2018-02-20T01:50:08.356Z,23.73
2018-02-20T01:52:36.446Z,25.17
2018-02-20T01:55:04.536Z,25.73
2018-02-20T01:57:32.640Z,26.47
2018-02-20T02:00:00.741Z,25.47
2018-02-20T02:02:28.855Z,26.80
2018-02-20T02:04:56.951Z,24.13
2018-02-20T02:07:25.061Z,23.10
2018-02-20T02:09:53.173Z,24.07
2018-02-20T02:12:21.275Z,23.90
2018-02-20T02:14:49.391Z,24.13
2018-02-20T02:17:17.508Z,23.73
2018-02-20T02:19:45.611Z,23.77
2018-02-20T02:22:14.492Z,24.10
2018-02-20T02:24:42.580Z,25.40
2018-02-20T02:27:11.457Z,25.00
2018-02-20T02:29:40.336Z,23.13
2018-02-20T02:32:08.449Z,24.03
2018-02-20T02:34:36.580Z,25.57
2018-02-20T02:37:04.704Z,23.53
2018-02-20T02:39:32.808Z,26.23
2018-02-20T02:42:00.912Z,24.43
2018-02-20T02:44:29.818Z,23.03
2018-02-20T02:46:58.678Z,24.03
2018-02-20T02:49:26.803Z,24.73
2018-02-20T02:51:54.911Z,25.33
2018-02-20T02:54:23.017Z,24.77
2018-02-20T02:56:51.904Z,23.40
2018-02-20T02:59:20.021Z,26.90
2018-02-20T03:01:48.146Z,25.60
2018-02-20T03:04:17.012Z,26.60
2018-02-20T03:06:45.124Z,26.50
2018-02-20T03:09:13.989Z,25.60
2018-02-20T03:11:42.097Z,25.30
2018-02-20T03:14:10.204Z,25.77
2018-02-20T03:16:38.317Z,25.20
2018-02-20T03:19:06.406Z,25.63
2018-02-20T03:21:35.259Z,24.40
2018-02-20T03:24:03.380Z,23.87
2018-02-20T03:26:31.506Z,25.17
2018-02-20T03:28:59.609Z,26.30
2018-02-20T03:31:28.507Z,24.97
2018-02-20T03:33:57.367Z,26.90
2018-02-20T03:36:25.450Z,26.63
2018-02-20T03:38:53.582Z,25.73
2018-02-20T03:41:22.426Z,25.17
2018-02-20T03:43:51.311Z,26.07
2018-02-20T03:46:20.172Z,27.13
2018-02-20T03:48:48.266Z,25.70
2018-02-20T03:51:17.156Z,26.27
2018-02-20T03:53:45.248Z,27.33
2018-02-20T03:56:13.364Z,27.40
2018-02-20T03:58:41.475Z,26.60
2018-02-20T04:01:13.880Z,27.13
2018-02-20T04:03:41.987Z,23.60
2018-02-20T04:06:10.077Z,28.50
2018-02-20T04:08:38.197Z,26.80
2018-02-20T04:11:06.311Z,25.70
2018-02-20T04:13:34.416Z,27.50
2018-02-20T04:16:03.291Z,27.90
2018-02-20T04:18:31.413Z,26.87
2018-02-20T04:20:59.506Z,25.90
2018-02-20T04:23:27.627Z,27.80
2018-02-20T04:25:55.729Z,27.43
2018-02-20T04:28:23.843Z,27.57
2018-02-20T04:30:51.954Z,27.50
2018-02-20T04:33:20.824Z,28.43
2018-02-20T04:35:48.943Z,27.20
2018-02-20T04:38:17.066Z,26.20
2018-02-20T04:40:45.186Z,26.47
2018-02-20T04:43:13.308Z,29.13
2018-02-20T04:45:41.427Z,25.87
2018-02-20T04:48:09.543Z,28.00
2018-02-20T04:50:37.658Z,28.30
2018-02-20T04:53:05.763Z,28.33
2018-02-20T04:55:33.856Z,28.23
2018-02-20T04:58:01.957Z,27.40
2018-02-20T05:00:30.817Z,27.40
2018-02-20T05:02:58.945Z,26.97
2018-02-20T05:05:27.054Z,28.30
2018-02-20T05:07:55.171Z,27.10
2018-02-20T05:10:24.040Z,28.87
2018-02-20T05:12:52.177Z,29.33
2018-02-20T05:15:20.259Z,27.20
2018-02-20T05:17:50.320Z,26.83
2018-02-20T05:20:19.216Z,29.27
2018-02-20T05:22:48.156Z,28.50
2018-02-20T05:25:16.993Z,28.70
2018-02-20T05:27:45.850Z,29.23
2018-02-20T05:30:13.980Z,29.83
2018-02-20T05:32:42.088Z,29.47
2018-02-20T05:35:10.180Z,27.67
2018-02-20T05:37:38.298Z,27.50
2018-02-20T05:40:06.391Z,26.70
2018-02-20T05:42:34.492Z,29.10
2018-02-20T05:45:02.600Z,27.03
2018-02-20T05:47:30.697Z,28.70
2018-02-20T05:49:58.812Z,31.57
2018-02-20T05:52:26.946Z,44.20
2018-02-20T05:54:55.067Z,60.90
2018-02-20T05:57:23.163Z,62.10
2018-02-20T05:59:51.284Z,52.93
2018-02-20T06:02:19.395Z,47.40
2018-02-20T06:04:47.520Z,41.10
2018-02-20T06:07:15.619Z,35.97
2018-02-20T06:09:43.760Z,33.57
2018-02-20T06:12:11.884Z,34.00
2018-02-20T06:14:39.977Z,32.57
2018-02-20T06:17:08.091Z,31.90
2018-02-20T06:19:36.200Z,27.80
2018-02-20T06:22:04.287Z,29.60
2018-02-20T06:24:33.161Z,28.77
2018-02-20T06:27:01.292Z,29.63
2018-02-20T06:29:30.172Z,28.23
2018-02-20T06:31:58.293Z,30.20
2018-02-20T06:34:26.400Z,28.37
2018-02-20T06:36:55.271Z,28.80
2018-02-20T06:39:23.369Z,30.90
2018-02-20T06:41:51.496Z,28.13
2018-02-20T06:44:19.596Z,28.67
2018-02-20T06:46:48.483Z,30.90
2018-02-20T06:49:17.345Z,31.50
2018-02-20T06:51:45.452Z,37.60
2018-02-20T06:54:14.328Z,46.00
2018-02-20T06:56:42.472Z,43.73
2018-02-20T06:59:10.576Z,39.97
2018-02-20T07:01:38.686Z,36.47
2018-02-20T07:04:06.812Z,33.27
2018-02-20T07:06:34.939Z,32.67
2018-02-20T07:09:03.046Z,33.10
2018-02-20T07:11:31.169Z,36.00
2018-02-20T07:13:59.273Z,35.03
2018-02-20T07:16:27.380Z,33.10
2018-02-20T07:18:55.473Z,33.00
2018-02-20T07:21:23.592Z,35.03
2018-02-20T07:23:51.679Z,32.60
2018-02-20T07:26:19.793Z,32.73
2018-02-20T07:28:48.685Z,33.80
2018-02-20T07:31:17.574Z,35.10
2018-02-20T07:33:46.436Z,32.23
2018-02-20T07:36:14.561Z,34.33
2018-02-20T07:38:42.669Z,34.77
2018-02-20T07:41:10.759Z,33.97
2018-02-20T07:43:38.883Z,35.07
2018-02-20T07:46:06.988Z,33.60
2018-02-20T07:48:35.116Z,33.10
2018-02-20T07:51:03.229Z,34.50
2018-02-20T07:53:31.360Z,34.50
2018-02-20T07:55:59.445Z,34.07
2018-02-20T07:58:27.570Z,35.93
2018-02-20T08:00:55.664Z,35.30
2018-02-20T08:03:23.791Z,34.40
2018-02-20T08:05:51.903Z,36.00
2018-02-20T08:08:20.012Z,35.13
2018-02-20T08:10:48.134Z,34.80
2018-02-20T08:13:16.235Z,34.87
2018-02-20T08:15:44.361Z,36.13
2018-02-20T08:18:12.476Z,37.00
2018-02-20T08:20:40.592Z,36.60
2018-02-20T08:23:08.692Z,37.33
2018-02-20T08:25:36.793Z,36.73
2018-02-20T08:28:05.675Z,36.73
2018-02-20T08:30:34.576Z,35.70
2018-02-20T08:33:02.686Z,35.87
2018-02-20T08:35:30.780Z,36.00
2018-02-20T08:37:58.910Z,36.83
2018-02-20T08:40:27.040Z,34.43
2018-02-20T08:42:55.171Z,38.70
2018-02-20T08:45:24.211Z,40.13
2018-02-20T08:47:52.308Z,37.63
2018-02-20T08:50:20.420Z,37.73
2018-02-20T08:52:48.516Z,38.47
2018-02-20T08:55:16.626Z,38.53
2018-02-20T08:57:44.728Z,41.80
2018-02-20T09:00:12.832Z,40.40
2018-02-20T09:02:40.950Z,40.97
2018-02-20T09:05:09.081Z,38.63
2018-02-20T09:07:37.175Z,40.27
2018-02-20T09:10:05.263Z,41.27
2018-02-20T09:12:33.364Z,43.20
2018-02-20T09:15:01.476Z,41.87
2018-02-20T09:17:29.587Z,43.27
2018-02-20T09:19:57.692Z,42.30
2018-02-20T09:22:25.797Z,40.63
2018-02-20T09:24:53.904Z,41.50
2018-02-20T09:27:22.028Z,42.60
2018-02-20T09:29:50.115Z,42.43
2018-02-20T09:32:18.220Z,41.83
2018-02-20T09:34:46.343Z,43.87
2018-02-20T09:37:14.449Z,42.40
2018-02-20T09:39:43.318Z,43.13
2018-02-20T09:42:11.430Z,45.10
2018-02-20T09:44:39.527Z,40.30
2018-02-20T09:47:07.632Z,44.60
2018-02-20T09:49:35.797Z,45.70
2018-02-20T09:52:04.611Z,41.80
2018-02-20T09:54:32.710Z,42.43
2018-02-20T09:57:00.822Z,43.97
2018-02-20T09:59:28.920Z,45.10
2018-02-20T10:01:57.023Z,42.63
2018-02-20T10:04:25.901Z,44.23
2018-02-20T10:06:54.777Z,42.23
2018-02-20T10:09:22.874Z,42.23
2018-02-20T10:11:52.775Z,45.23
2018-02-20T10:14:20.880Z,44.80
2018-02-20T10:16:48.991Z,45.07
2018-02-20T10:19:17.090Z,41.10
2018-02-20T10:21:45.958Z,41.70
2018-02-20T10:24:14.041Z,40.00
2018-02-20T10:26:42.170Z,39.70
2018-02-20T10:29:10.259Z,39.07
2018-02-20T10:31:38.355Z,38.27
2018-02-20T10:34:06.481Z,40.20
2018-02-20T10:36:34.634Z,42.70
2018-02-20T10:39:04.624Z,41.47
2018-02-20T10:41:32.736Z,42.23
2018-02-20T10:44:00.892Z,39.07
2018-02-20T10:46:28.998Z,40.80
2018-02-20T10:48:57.110Z,38.87
2018-02-20T10:51:25.229Z,41.10
2018-02-20T10:53:53.333Z,41.37
2018-02-20T10:56:21.438Z,38.77
2018-02-20T10:58:49.545Z,42.50
2018-02-20T11:01:17.626Z,40.60
2018-02-20T11:03:45.754Z,43.93
2018-02-20T11:06:13.855Z,43.53
2018-02-20T11:08:42.003Z,44.20
2018-02-20T11:11:10.153Z,45.03
2018-02-20T11:13:38.244Z,41.70
2018-02-20T11:16:07.156Z,41.27
2018-02-20T11:18:36.033Z,39.43
2018-02-20T11:21:04.136Z,41.63
2018-02-20T11:23:32.256Z,38.17
2018-02-20T11:26:00.363Z,40.87
2018-02-20T11:28:28.450Z,40.80
2018-02-20T11:30:56.612Z,39.80
2018-02-20T11:33:24.663Z,40.60
2018-02-20T11:35:53.533Z,37.70
2018-02-20T11:38:21.628Z,38.00
2018-02-20T11:40:50.536Z,40.23
2018-02-20T11:43:21.473Z,41.47
2018-02-20T11:45:50.348Z,39.53
2018-02-20T11:48:19.229Z,39.83
2018-02-20T11:50:47.322Z,38.10
2018-02-20T11:53:16.184Z,40.47
2018-02-20T11:55:44.276Z,40.80
2018-02-20T11:58:13.159Z,37.97
2018-02-20T12:00:41.246Z,38.10
2018-02-20T12:03:10.121Z,37.10
2018-02-20T12:05:38.209Z,38.43
2018-02-20T12:08:06.320Z,36.40
2018-02-20T12:10:34.414Z,36.93
2018-02-20T12:13:02.536Z,38.37
2018-02-20T12:15:31.415Z,37.13
2018-02-20T12:17:59.525Z,34.17
2018-02-20T12:20:27.649Z,33.17
2018-02-20T12:22:55.771Z,33.47
2018-02-20T12:25:23.891Z,34.90
2018-02-20T12:27:51.973Z,34.60
2018-02-20T12:30:20.872Z,33.77
2018-02-20T12:32:49.746Z,33.37
2018-02-20T12:35:17.848Z,32.43
2018-02-20T12:37:45.954Z,30.83
2018-02-20T12:40:14.046Z,29.93
2018-02-20T12:42:42.127Z,30.13
2018-02-20T12:45:10.255Z,30.50
2018-02-20T12:47:38.360Z,31.97
2018-02-20T12:50:06.452Z,33.27
2018-02-20T12:52:34.607Z,33.13
2018-02-20T12:55:02.703Z,32.60
2018-02-20T12:57:30.799Z,30.20
2018-02-20T12:59:58.904Z,34.47
2018-02-20T13:02:27.016Z,32.27
2018-02-20T13:04:55.101Z,32.00
2018-02-20T13:07:23.971Z,34.10
2018-02-20T13:09:52.070Z,35.03
2018-02-20T13:12:20.919Z,33.37
2018-02-20T13:14:49.030Z,34.50
2018-02-20T13:17:17.892Z,31.90
2018-02-20T13:19:46.028Z,33.93
2018-02-20T13:22:14.154Z,34.17
2018-02-20T13:24:42.254Z,30.70
2018-02-20T13:27:10.394Z,35.50
2018-02-20T13:29:38.518Z,34.40
2018-02-20T13:32:06.625Z,33.77
2018-02-20T13:34:34.715Z,31.90
2018-02-20T13:37:02.819Z,32.23
2018-02-20T13:39:31.830Z,25.70
2018-02-20T13:41:59.956Z,26.40
2018-02-20T13:44:28.055Z,24.10
2018-02-20T13:46:56.161Z,23.30
2018-02-20T13:49:24.290Z,23.20
2018-02-20T13:51:53.154Z,23.13
2018-02-20T13:54:21.277Z,22.87
2018-02-20T13:56:49.390Z,24.17
2018-02-20T13:59:17.500Z,23.13
2018-02-20T14:01:45.591Z,23.60
2018-02-20T14:04:13.703Z,23.93
2018-02-20T14:06:41.835Z,22.20
2018-02-20T14:09:09.946Z,21.33
2018-02-20T14:11:38.048Z,20.77
2018-02-20T14:14:06.147Z,20.57
2018-02-20T14:16:34.272Z,19.37
2018-02-20T14:19:02.361Z,19.73
2018-02-20T14:21:30.443Z,19.20
2018-02-20T14:23:59.326Z,20.10
2018-02-20T14:26:27.432Z,20.23
2018-02-20T14:28:55.524Z,20.60
2018-02-20T14:31:23.641Z,22.73
2018-02-20T14:33:51.741Z,20.40
2018-02-20T14:36:19.857Z,19.00
2018-02-20T14:38:47.955Z,18.00
2018-02-20T14:41:16.095Z,19.13
2018-02-20T14:43:44.187Z,18.33
2018-02-20T14:46:12.296Z,19.60
2018-02-20T14:48:41.232Z,20.13
2018-02-20T14:51:10.267Z,19.57
2018-02-20T14:53:38.396Z,21.87
2018-02-20T14:56:06.472Z,21.97
2018-02-20T14:58:34.580Z,21.53
2018-02-20T15:01:02.718Z,22.50
2018-02-20T15:03:30.825Z,24.57
2018-02-20T15:05:58.920Z,21.50
2018-02-20T15:08:27.034Z,20.77
2018-02-20T15:10:55.140Z,23.70
2018-02-20T15:13:23.270Z,24.23
2018-02-20T15:15:52.336Z,25.30
2018-02-20T15:18:20.451Z,23.87
2018-02-20T15:20:48.593Z,25.50
2018-02-20T15:23:16.721Z,26.57
2018-02-20T15:25:44.821Z,26.90
2018-02-20T15:28:13.699Z,27.87
2018-02-20T15:30:41.809Z,27.70
2018-02-20T15:33:09.928Z,28.57
2018-02-20T15:35:38.045Z,26.30
2018-02-20T15:38:06.186Z,26.80
2018-02-20T15:40:34.293Z,27.37
2018-02-20T15:43:02.408Z,26.60
2018-02-20T15:45:30.511Z,27.53
2018-02-20T15:47:58.605Z,27.03
2018-02-20T15:50:26.732Z,28.13
2018-02-20T15:52:54.868Z,25.77
2018-02-20T15:55:22.981Z,25.83
2018-02-20T15:57:51.079Z,25.97
2018-02-20T16:00:19.952Z,25.63
2018-02-20T16:02:48.051Z,26.03
2018-02-20T16:05:16.147Z,26.03
2018-02-20T16:07:44.268Z,25.83
2018-02-20T16:10:12.374Z,25.70
2018-02-20T16:12:40.494Z,25.80
2018-02-20T16:15:08.588Z,26.07
2018-02-20T16:17:36.721Z,27.10
2018-02-20T16:20:06.457Z,25.77
2018-02-20T16:22:34.560Z,27.40
2018-02-20T16:25:03.429Z,27.80
2018-02-20T16:27:31.568Z,27.37
2018-02-20T16:29:59.675Z,27.60
2018-02-20T16:32:27.760Z,25.73
2018-02-20T16:34:55.874Z,27.53
2018-02-20T16:37:23.965Z,29.67
2018-02-20T16:39:52.080Z,30.37
2018-02-20T16:42:20.180Z,27.10
2018-02-20T16:44:48.318Z,30.20
2018-02-20T16:47:16.484Z,28.10
2018-02-20T16:49:44.568Z,28.30
2018-02-20T16:52:12.735Z,28.07
2018-02-20T16:54:40.849Z,27.97
2018-02-20T16:57:08.938Z,29.00
2018-02-20T16:59:37.068Z,28.83
2018-02-20T17:02:05.172Z,29.20
2018-02-20T17:04:33.308Z,30.00
2018-02-20T17:07:01.396Z,30.17
2018-02-20T17:09:31.337Z,29.30
2018-02-20T17:11:59.429Z,30.83
2018-02-20T17:14:27.538Z,28.70
2018-02-20T17:16:55.660Z,29.97
2018-02-20T17:19:23.777Z,28.37
2018-02-20T17:21:51.897Z,30.07
2018-02-20T17:24:20.006Z,26.93
2018-02-20T17:26:48.180Z,30.13
2018-02-20T17:29:16.249Z,28.63
2018-02-20T17:31:45.263Z,30.40
2018-02-20T17:34:13.356Z,29.30
2018-02-20T17:36:41.488Z,27.53
2018-02-20T17:39:09.580Z,29.30
2018-02-20T17:41:37.699Z,31.40
2018-02-20T17:44:05.785Z,31.60
2018-02-20T17:46:33.888Z,29.47
2018-02-20T17:49:01.989Z,28.43
2018-02-20T17:51:30.102Z,28.00
2018-02-20T17:53:58.199Z,29.60
2018-02-20T17:56:27.209Z,28.60
2018-02-20T17:58:55.310Z,28.47
2018-02-20T18:01:23.424Z,32.03
2018-02-20T18:03:51.506Z,29.63
2018-02-20T18:06:19.609Z,28.93
2018-02-20T18:08:47.736Z,29.73
2018-02-20T18:11:15.832Z,32.17
2018-02-20T18:13:43.964Z,30.07
2018-02-20T18:16:12.082Z,34.07
2018-02-20T18:18:40.165Z,32.47
2018-02-20T18:21:08.287Z,30.63
2018-02-20T18:23:36.416Z,31.20
2018-02-20T18:26:04.520Z,30.53
2018-02-20T18:28:32.620Z,30.90
2018-02-20T18:31:00.742Z,30.70
2018-02-20T18:33:28.852Z,32.17
2018-02-20T18:35:56.936Z,30.80
2018-02-20T18:38:26.097Z,33.87
2018-02-20T18:40:54.946Z,31.43
2018-02-20T18:43:23.061Z,32.67
2018-02-20T18:45:51.923Z,34.37
2018-02-20T18:48:20.069Z,29.40
2018-02-20T18:50:48.164Z,31.60
2018-02-20T18:53:18.209Z,31.67
2018-02-20T18:55:47.089Z,32.50
2018-02-20T18:58:15.980Z,32.10
2018-02-20T19:00:44.878Z,31.90
2018-02-20T19:03:13.768Z,31.43
2018-02-20T19:05:42.634Z,31.77
2018-02-20T19:08:10.748Z,30.70
2018-02-20T19:10:38.864Z,31.13
2018-02-20T19:13:06.966Z,32.67
2018-02-20T19:15:35.163Z,35.73
2018-02-20T19:18:03.270Z,33.70
2018-02-20T19:20:33.465Z,33.10
2018-02-20T19:23:07.347Z,34.40
2018-02-20T19:25:39.451Z,31.00
2018-02-20T19:28:07.601Z,31.10
2018-02-20T19:30:35.773Z,33.40
2018-02-20T19:33:03.906Z,32.23
2018-02-20T19:35:32.106Z,31.73
2018-02-20T19:38:02.687Z,32.73
2018-02-20T19:40:31.704Z,32.07
2018-02-20T19:42:59.954Z,32.83
2018-02-20T19:45:28.120Z,35.10
2018-02-20T19:47:56.296Z,33.33
2018-02-20T19:50:24.513Z,37.07
2018-02-20T19:52:52.669Z,37.63
2018-02-20T19:55:20.908Z,36.10
2018-02-20T19:57:49.028Z,38.03
2018-02-20T20:00:20.575Z,36.70
2018-02-20T20:02:48.747Z,36.83
2018-02-20T20:05:16.963Z,35.07
2018-02-20T20:07:45.884Z,34.77
2018-02-20T20:10:16.012Z,36.10
2018-02-20T20:12:46.183Z,36.97
2018-02-20T20:15:18.884Z,44.50
2018-02-20T20:17:47.771Z,50.33
2018-02-20T20:20:21.296Z,47.30
2018-02-20T20:22:49.412Z,38.13
2018-02-20T20:25:17.558Z,37.40
2018-02-20T20:27:48.501Z,38.33
2018-02-20T20:30:16.596Z,38.07
2018-02-20T20:32:44.700Z,38.87
2018-02-20T20:35:16.731Z,37.90
2018-02-20T20:37:44.855Z,36.33
2018-02-20T20:40:13.744Z,37.80
2018-02-20T20:42:41.884Z,37.07
2018-02-20T20:45:09.976Z,38.53
2018-02-20T20:47:38.835Z,38.30
2018-02-20T20:50:06.943Z,39.20
2018-02-20T20:52:35.845Z,38.77
2018-02-20T20:55:03.988Z,39.57
2018-02-20T20:57:32.096Z,38.80
2018-02-20T21:00:00.200Z,39.00
2018-02-20T21:02:28.310Z,39.67
2018-02-20T21:04:57.186Z,39.60
2018-02-20T21:07:25.324Z,39.07
2018-02-20T21:09:53.413Z,37.63
2018-02-20T21:12:21.602Z,40.50
2018-02-20T21:14:49.744Z,40.70
2018-02-20T21:17:17.872Z,41.67
2018-02-20T21:19:46.753Z,53.73
2018-02-20T21:22:15.660Z,41.17
2018-02-20T21:24:44.531Z,41.23
2018-02-20T21:27:12.717Z,48.37
2018-02-20T21:29:40.847Z,46.13
2018-02-20T21:32:08.952Z,43.83
2018-02-20T21:34:37.837Z,39.87
2018-02-20T21:37:05.968Z,44.07
2018-02-20T21:39:34.066Z,40.80
2018-02-20T21:42:02.169Z,40.70
2018-02-20T21:44:30.290Z,43.77
2018-02-20T21:46:58.395Z,39.80
2018-02-20T21:49:26.505Z,41.10
2018-02-20T21:51:54.873Z,40.37
2018-02-20T21:54:23.756Z,38.20
2018-02-20T21:56:51.845Z,42.70
2018-02-20T21:59:19.960Z,41.57
2018-02-20T22:01:49.120Z,42.40
2018-02-20T22:04:17.273Z,40.93
2018-02-20T22:06:45.410Z,40.20
2018-02-20T22:09:13.544Z,44.53
2018-02-20T22:11:41.693Z,42.70
2018-02-20T22:14:10.558Z,43.60
2018-02-20T22:16:38.682Z,42.67
2018-02-20T22:19:06.769Z,42.70
2018-02-20T22:21:34.884Z,42.50
2018-02-20T22:24:03.763Z,42.83
2018-02-20T22:26:33.945Z,43.90
2018-02-20T22:29:02.077Z,43.07
2018-02-20T22:31:30.236Z,44.37
2018-02-20T22:33:58.416Z,41.20
2018-02-20T22:36:26.552Z,44.30
2018-02-20T22:38:54.675Z,44.97
2018-02-20T22:41:23.552Z,45.40
2018-02-20T22:43:51.663Z,43.70
2018-02-20T22:46:19.757Z,40.63
2018-02-20T22:48:47.878Z,44.63
2018-02-20T22:51:15.984Z,44.27
2018-02-20T22:53:44.102Z,45.73
2018-02-20T22:56:12.225Z,43.30
2018-02-20T22:58:40.339Z,43.07
2018-02-20T23:01:08.453Z,43.90
2018-02-20T23:03:36.574Z,42.80
2018-02-20T23:06:04.669Z,42.47
2018-02-20T23:08:32.771Z,46.70
2018-02-20T23:11:00.882Z,44.80
2018-02-20T23:13:29.000Z,43.13
2018-02-20T23:15:57.098Z,45.10
2018-02-20T23:18:25.967Z,42.10
2018-02-20T23:20:54.077Z,42.13
2018-02-20T23:23:22.191Z,44.43
2018-02-20T23:25:50.271Z,45.30
2018-02-20T23:28:18.385Z,45.00
2018-02-20T23:30:46.492Z,47.70
2018-02-20T23:33:14.590Z,44.07
2018-02-20T23:35:42.702Z,47.80
2018-02-20T23:38:10.812Z,44.63
2018-02-20T23:40:38.891Z,45.90
2018-02-20T23:43:07.015Z,47.30
2018-02-20T23:45:35.875Z,44.50
2018-02-20T23:48:03.979Z,46.23
2018-02-20T23:50:32.077Z,46.27
2018-02-20T23:53:00.177Z,46.10
2018-02-20T23:55:28.276Z,43.40
2018-02-20T23:57:57.147Z,45.37
